Time;durP1;ratioP1;P1;durP2;ratioP2;P2;SDS_P1;SDS_P2;PMS_P1;PMS_P2;Temp;Humidity;BMP_temperature;BMP_pressure;BME280_temperature;BME280_humidity;BME280_pressure;Samples;Min_cycle;Max_cycle;Signal;HPM_P1;HPM_P2
2023/01/16 00:01:15;;;;;;;2.55;0.57;;;;;;;9.36;52.94;99685.03;4929385;28;98859;-71
2023/01/16 00:03:42;;;;;;;0.98;0.68;;;;;;;9.13;53.97;99684.31;4947699;28;98742;-71
2023/01/16 00:06:10;;;;;;;3.50;0.57;;;;;;;9.25;53.76;99690.81;4929935;28;96719;-71
2023/01/16 00:08:36;;;;;;;3.15;0.57;;;;;;;9.37;53.12;99678.81;4935186;28;96774;-72
2023/01/16 00:11:04;;;;;;;2.15;0.57;;;;;;;9.53;52.64;99671.88;4940266;28;100501;-72
2023/01/16 00:13:31;;;;;;;4.35;0.60;;;;;;;9.52;52.49;99678.06;4933868;28;97735;-71
2023/01/16 00:15:57;;;;;;;4.20;0.70;;;;;;;9.45;52.27;99681.97;4927782;28;97224;-71
2023/01/16 00:18:24;;;;;;;2.58;0.50;;;;;;;9.56;52.54;99677.00;4933199;28;97107;-71
2023/01/16 00:20:50;;;;;;;1.55;0.50;;;;;;;9.81;52.04;99681.94;4941154;28;104533;-73
2023/01/16 00:23:17;;;;;;;5.97;1.02;;;;;;;9.80;51.82;99669.69;4940996;28;98915;-71
2023/01/16 00:25:44;;;;;;;5.32;1.60;;;;;;;9.75;51.63;99677.81;4924898;28;98938;-71
2023/01/16 00:28:14;;;;;;;4.65;0.50;;;;;;;9.81;51.57;99674.88;4931496;28;96870;-71
2023/01/16 00:30:41;;;;;;;4.30;1.00;;;;;;;9.77;51.78;99680.41;4932588;28;98910;-71
2023/01/16 00:33:08;;;;;;;3.28;0.50;;;;;;;9.69;51.73;99675.50;4933049;28;97745;-71
2023/01/16 00:35:35;;;;;;;1.95;0.50;;;;;;;9.65;51.67;99673.09;4942424;28;96776;-70
2023/01/16 00:38:02;;;;;;;3.35;0.57;;;;;;;9.87;51.52;99673.72;4928056;28;97151;-71
2023/01/16 00:40:28;;;;;;;3.05;0.60;;;;;;;9.89;51.39;99678.00;4928054;28;100015;-72
2023/01/16 00:42:55;;;;;;;4.53;0.77;;;;;;;9.79;51.40;99676.75;4930497;28;98588;-70
2023/01/16 00:45:23;;;;;;;5.47;1.30;;;;;;;9.59;52.04;99675.06;4938722;28;97265;-71
2023/01/16 00:47:49;;;;;;;2.47;0.50;;;;;;;9.73;51.61;99671.75;4940415;28;96868;-70
2023/01/16 00:50:16;;;;;;;0.85;0.77;;;;;;;9.71;51.56;99684.19;4933987;28;98826;-70
2023/01/16 00:52:42;;;;;;;3.53;0.50;;;;;;;9.61;52.22;99682.91;4934616;28;99107;-71
2023/01/16 00:55:09;;;;;;;2.33;0.43;;;;;;;9.76;51.65;99681.31;4923264;28;97151;-71
2023/01/16 00:57:36;;;;;;;2.45;0.63;;;;;;;9.81;51.57;99677.53;4936347;28;96927;-71
2023/01/16 01:00:03;;;;;;;1.10;0.30;;;;;;;9.84;50.97;99687.94;4929773;28;97802;-70
2023/01/16 01:02:31;;;;;;;4.25;0.90;;;;;;;9.69;51.29;99683.41;4929134;28;104000;-71
2023/01/16 01:04:57;;;;;;;1.45;0.45;;;;;;;9.63;51.47;99683.72;4931697;28;99716;-71
2023/01/16 01:07:23;;;;;;;2.22;0.60;;;;;;;9.62;51.86;99689.91;4928203;28;98274;-71
2023/01/16 01:09:50;;;;;;;3.25;0.60;;;;;;;9.69;51.82;99686.03;4934431;28;99184;-71
2023/01/16 01:12:16;;;;;;;3.63;0.50;;;;;;;9.85;51.07;99686.13;4940203;28;98864;-71
2023/01/16 01:14:43;;;;;;;1.73;0.30;;;;;;;9.91;50.88;99691.97;4936215;28;97969;-71
2023/01/16 01:17:09;;;;;;;2.00;0.40;;;;;;;9.77;51.20;99694.44;4934418;28;96718;-71
2023/01/16 01:19:37;;;;;;;2.95;0.70;;;;;;;9.79;50.93;99689.94;4933545;28;98902;-72
2023/01/16 01:22:03;;;;;;;1.15;0.47;;;;;;;9.75;51.30;99691.03;4930983;28;99105;-71
2023/01/16 01:24:30;;;;;;;1.77;0.35;;;;;;;9.66;51.16;99680.91;4937247;28;97094;-70
2023/01/16 01:26:56;;;;;;;2.45;0.45;;;;;;;9.74;50.93;99688.44;4938771;28;96808;-71
2023/01/16 01:29:23;;;;;;;2.75;0.65;;;;;;;9.64;51.13;99679.28;4929929;28;99150;-71
2023/01/16 01:31:49;;;;;;;1.70;0.40;;;;;;;9.52;51.54;99684.19;4930797;28;99228;-71
2023/01/16 01:34:15;;;;;;;2.83;0.60;;;;;;;9.52;51.70;99683.34;4927656;28;97492;-71
2023/01/16 01:36:43;;;;;;;2.22;0.40;;;;;;;9.40;51.76;99679.53;4931364;28;97534;-71
2023/01/16 01:39:09;;;;;;;3.15;0.50;;;;;;;9.40;51.64;99676.03;4929342;28;99544;-72
2023/01/16 01:41:36;;;;;;;1.23;0.40;;;;;;;9.23;52.28;99676.84;4936421;28;97580;-72
2023/01/16 01:44:02;;;;;;;3.30;0.50;;;;;;;9.26;52.35;99676.66;4933618;28;97363;-70
2023/01/16 01:46:35;;;;;;;1.35;0.57;;;;;;;9.20;52.54;99682.22;4933202;28;97440;-71
2023/01/16 01:49:11;;;;;;;3.28;0.77;;;;;;;9.22;52.49;99680.41;4931921;28;99038;-70
2023/01/16 01:51:42;;;;;;;1.98;0.57;;;;;;;9.13;52.80;99673.75;4925008;28;97872;-70
2023/01/16 01:54:12;;;;;;;2.95;0.47;;;;;;;9.14;52.64;99671.97;4927941;28;97264;-71
2023/01/16 01:56:45;;;;;;;1.73;0.50;;;;;;;9.43;52.20;99674.13;4938577;28;97326;-70
2023/01/16 01:59:15;;;;;;;3.33;0.70;;;;;;;9.44;51.69;99670.56;4937732;28;99173;-70
2023/01/16 02:01:42;;;;;;;2.75;0.50;;;;;;;9.24;52.41;99667.16;4940559;28;98814;-70
2023/01/16 02:04:11;;;;;;;4.07;0.60;;;;;;;9.36;52.04;99674.47;4936186;28;98266;-71
2023/01/16 02:06:43;;;;;;;2.95;0.43;;;;;;;9.25;52.33;99676.78;4937627;28;96972;-70
2023/01/16 02:09:12;;;;;;;4.88;0.60;;;;;;;9.32;52.09;99665.00;4923300;28;100069;-72
2023/01/16 02:11:44;;;;;;;3.30;0.40;;;;;;;9.09;52.96;99661.66;4934401;28;100157;-70
2023/01/16 02:14:15;;;;;;;3.63;0.50;;;;;;;9.00;52.95;99663.84;4931374;28;97555;-71
2023/01/16 02:19:38;;;;;;;3.40;1.00;;;;;;;8.93;53.20;99658.00;4928252;28;97164;-70
2023/01/16 02:22:30;;;;;;;3.47;0.50;;;;;;;9.26;52.78;99657.38;4935931;28;98982;-71
2023/01/16 02:25:29;;;;;;;1.95;0.98;;;;;;;9.29;52.70;99649.31;4915295;28;96845;-70
2023/01/16 02:28:11;;;;;;;3.78;0.60;;;;;;;9.29;52.38;99658.09;4931564;28;96772;-71
2023/01/16 02:31:04;;;;;;;2.38;0.40;;;;;;;9.36;52.13;99659.50;4932178;28;99329;-71
2023/01/16 02:33:45;;;;;;;2.05;0.55;;;;;;;9.44;52.45;99653.88;4929684;28;97713;-71
2023/01/16 02:36:16;;;;;;;3.42;0.70;;;;;;;9.55;52.13;99654.19;4925456;28;98682;-72
2023/01/16 02:38:54;;;;;;;3.47;0.40;;;;;;;9.36;52.47;99650.75;4933797;28;96812;-71
2023/01/16 02:41:30;;;;;;;3.92;0.57;;;;;;;9.16;53.13;99646.41;4934071;28;97785;-73
2023/01/16 02:44:06;;;;;;;2.75;0.43;;;;;;;9.18;52.76;99652.47;4925857;28;99381;-71
2023/01/16 02:46:39;;;;;;;6.73;0.80;;;;;;;9.14;53.18;99650.91;4933887;28;97124;-71
2023/01/16 02:49:17;;;;;;;0.55;0.40;;;;;;;9.31;52.69;99644.84;4937505;28;96827;-71
2023/01/16 02:51:51;;;;;;;1.35;0.40;;;;;;;9.19;53.12;99638.34;4934368;28;99140;-70
2023/01/16 02:54:25;;;;;;;5.22;1.98;;;;;;;9.10;53.15;99638.81;4931253;28;99433;-71
2023/01/16 02:56:58;;;;;;;2.85;0.40;;;;;;;9.37;52.79;99636.63;4935515;28;98267;-71
2023/01/16 02:59:27;;;;;;;2.38;0.40;;;;;;;9.39;52.47;99634.75;4930590;28;96799;-71
2023/01/16 03:01:56;;;;;;;3.10;0.50;;;;;;;9.53;52.48;99629.69;4928170;28;99250;-71
2023/01/16 03:04:41;;;;;;;2.88;0.50;;;;;;;9.42;52.65;99613.53;4927481;28;98926;-71
2023/01/16 03:07:25;;;;;;;1.75;0.40;;;;;;;9.52;52.23;99614.78;4933232;28;96903;-72
2023/01/16 03:10:05;;;;;;;3.28;0.70;;;;;;;9.66;52.06;99619.38;4930363;28;96784;-71
2023/01/16 03:12:41;;;;;;;4.20;0.80;;;;;;;9.57;52.01;99615.44;4927430;28;98758;-72
2023/01/16 03:15:12;;;;;;;3.70;0.73;;;;;;;9.67;52.26;99614.03;4925556;28;98897;-72
2023/01/16 03:17:53;;;;;;;2.80;0.65;;;;;;;9.35;52.58;99607.72;4928023;28;97523;-72
2023/01/16 03:20:31;;;;;;;3.67;0.70;;;;;;;9.28;52.77;99605.44;4934095;28;97073;-71
2023/01/16 03:23:10;;;;;;;2.08;0.50;;;;;;;9.30;52.75;99595.69;4931482;28;98872;-73
2023/01/16 03:25:42;;;;;;;4.65;0.95;;;;;;;9.12;53.37;99600.88;4933801;28;98816;-71
2023/01/16 03:28:15;;;;;;;2.55;0.50;;;;;;;9.05;53.46;99591.59;4934160;28;97206;-71
2023/01/16 03:30:51;;;;;;;5.72;0.65;;;;;;;9.04;53.94;99596.94;4937790;28;96873;-71
2023/01/16 03:33:23;;;;;;;;;;;;;;;8.99;53.87;99586.59;4935569;28;98973;-71
2023/01/16 03:35:55;;;;;;;4.72;0.60;;;;;;;9.09;53.53;99585.25;4932906;28;97717;-70
2023/01/16 03:38:25;;;;;;;2.08;0.60;;;;;;;9.26;52.97;99573.88;4930702;28;97754;-71
2023/01/16 03:40:53;;;;;;;4.35;0.60;;;;;;;8.95;53.38;99578.91;4934279;28;98333;-71
2023/01/16 03:43:24;;;;;;;4.75;0.60;;;;;;;8.88;54.06;99575.72;4924560;28;99403;-71
2023/01/16 03:45:56;;;;;;;1.55;0.45;;;;;;;8.76;54.23;99571.00;4935612;28;102887;-71
2023/01/16 03:48:32;;;;;;;0.73;0.40;;;;;;;8.93;54.16;99576.34;4936881;28;96814;-71
2023/01/16 03:51:02;;;;;;;0.90;0.40;;;;;;;8.93;54.24;99576.34;4927884;28;96881;-70
2023/01/16 03:53:32;;;;;;;2.13;0.50;;;;;;;8.99;53.88;99573.41;4928099;28;98904;-71
2023/01/16 03:56:05;;;;;;;1.30;0.40;;;;;;;9.27;53.36;99575.59;4922114;28;99850;-71
2023/01/16 03:58:36;;;;;;;3.70;0.40;;;;;;;8.80;54.19;99569.94;4928027;28;96735;-72
2023/01/16 04:01:13;;;;;;;2.30;0.38;;;;;;;8.90;54.03;99565.09;4928754;28;96962;-73
2023/01/16 04:03:48;;;;;;;1.25;0.32;;;;;;;8.89;54.21;99560.75;4928195;28;99069;-71
2023/01/16 04:06:21;;;;;;;4.18;0.73;;;;;;;9.03;53.85;99556.53;4923631;28;100644;-70
2023/01/16 04:08:49;;;;;;;1.65;0.40;;;;;;;9.08;53.50;99557.16;4934260;28;96887;-71
2023/01/16 04:11:19;;;;;;;2.47;0.47;;;;;;;8.98;53.76;99548.00;4933432;28;96794;-70
2023/01/16 04:13:49;;;;;;;2.08;0.60;;;;;;;9.08;53.93;99551.03;4933616;28;102018;-71
2023/01/16 04:16:18;;;;;;;5.32;0.60;;;;;;;9.03;53.76;99540.72;4927048;28;101093;-70
2023/01/16 04:18:47;;;;;;;5.10;0.80;;;;;;;8.94;53.98;99532.41;4928887;28;97091;-70
2023/01/16 04:21:14;;;;;;;3.25;0.70;;;;;;;8.87;54.14;99523.09;4929619;28;98681;-71
2023/01/16 04:23:41;;;;;;;2.35;0.60;;;;;;;8.91;54.32;99522.03;4927289;28;98994;-70
2023/01/16 04:26:07;;;;;;;3.30;0.65;;;;;;;8.70;54.52;99516.00;4921792;28;97991;-71
2023/01/16 04:28:33;;;;;;;2.10;0.60;;;;;;;8.68;54.62;99516.06;4932334;28;98772;-70
2023/01/16 04:31:00;;;;;;;3.60;0.80;;;;;;;8.64;55.33;99506.63;4931261;28;98749;-70
2023/01/16 04:33:26;;;;;;;4.35;1.20;;;;;;;8.54;55.54;99509.72;4929460;28;99021;-70
2023/01/16 04:35:54;;;;;;;1.75;0.60;;;;;;;8.53;55.63;99511.53;4930557;28;99134;-70
2023/01/16 04:38:20;;;;;;;1.58;0.60;;;;;;;8.57;55.56;99497.28;4931693;28;96804;-71
2023/01/16 04:40:46;;;;;;;3.03;1.30;;;;;;;8.46;55.88;99498.72;4931431;28;97775;-71
2023/01/16 04:43:13;;;;;;;2.70;0.68;;;;;;;8.63;55.39;99496.16;4932304;28;99249;-71
2023/01/16 04:45:40;;;;;;;2.38;0.70;;;;;;;8.80;55.22;99494.41;4934965;28;99382;-71
2023/01/16 04:48:07;;;;;;;4.03;0.73;;;;;;;8.83;54.85;99490.78;4927576;28;96915;-70
2023/01/16 04:50:33;;;;;;;1.80;0.60;;;;;;;8.53;55.78;99481.72;4930602;28;97155;-71
2023/01/16 04:53:01;;;;;;;6.60;0.82;;;;;;;8.51;55.84;99483.56;4934977;28;98939;-72
2023/01/16 04:55:28;;;;;;;3.35;0.73;;;;;;;8.56;55.38;99486.81;4934077;28;99366;-71
2023/01/16 04:57:54;;;;;;;3.88;0.68;;;;;;;8.55;55.64;99474.59;4931920;28;97867;-72
2023/01/16 05:00:21;;;;;;;6.00;1.00;;;;;;;8.54;55.64;99481.63;4936461;28;97231;-71
2023/01/16 05:02:47;;;;;;;1.65;0.50;;;;;;;8.45;56.00;99489.13;4924396;28;99166;-71
2023/01/16 05:05:14;;;;;;;4.18;0.70;;;;;;;8.42;56.29;99481.34;4923997;28;98785;-71
2023/01/16 05:07:40;;;;;;;5.03;0.95;;;;;;;8.57;56.05;99480.63;4931789;28;96815;-72
2023/01/16 05:10:10;;;;;;;3.47;0.55;;;;;;;8.45;55.93;99473.31;4941554;28;96792;-70
2023/01/16 05:12:36;;;;;;;3.42;1.60;;;;;;;8.63;55.42;99461.91;4931444;28;98723;-71
2023/01/16 05:15:05;;;;;;;3.17;0.70;;;;;;;8.56;55.58;99466.63;4932478;28;99250;-69
2023/01/16 05:17:32;;;;;;;7.28;0.90;;;;;;;8.53;55.62;99463.28;4940214;28;97321;-73
2023/01/16 05:19:58;;;;;;;3.33;0.80;;;;;;;8.61;55.19;99467.25;4930413;28;97066;-71
2023/01/16 05:22:24;;;;;;;2.00;0.70;;;;;;;8.78;54.74;99455.91;4931094;28;99175;-70
2023/01/16 05:24:51;;;;;;;1.63;0.60;;;;;;;8.51;55.52;99466.00;4931197;28;98922;-71
2023/01/16 05:27:18;;;;;;;2.35;0.60;;;;;;;8.42;55.57;99458.50;4929672;28;96759;-72
2023/01/16 05:29:45;;;;;;;2.50;0.60;;;;;;;8.57;55.40;99459.56;4937187;28;97129;-70
2023/01/16 05:32:13;;;;;;;3.35;0.70;;;;;;;8.55;55.67;99462.28;4928281;28;99051;-71
2023/01/16 05:34:40;;;;;;;2.13;0.90;;;;;;;8.50;55.94;99460.78;4933594;28;99246;-72
2023/01/16 05:37:06;;;;;;;5.93;1.70;;;;;;;8.50;55.46;99460.78;4929140;28;96727;-75
2023/01/16 05:39:32;;;;;;;6.22;0.50;;;;;;;8.49;55.26;99456.44;4929122;28;97547;-71
2023/01/16 05:41:59;;;;;;;2.65;0.70;;;;;;;8.48;55.70;99458.22;4935870;28;99948;-71
2023/01/16 05:44:26;;;;;;;3.28;0.80;;;;;;;8.57;55.31;99449.03;4931241;28;101368;-70
2023/01/16 05:46:53;;;;;;;2.00;0.70;;;;;;;8.53;55.16;99447.50;4933459;28;99098;-71
2023/01/16 05:49:22;;;;;;;2.28;0.75;;;;;;;8.56;55.11;99448.19;4941367;28;96759;-71
2023/01/16 05:51:49;;;;;;;2.88;0.68;;;;;;;8.31;55.72;99442.38;4932176;28;97822;-70
2023/01/16 05:54:15;;;;;;;5.85;1.00;;;;;;;8.60;54.94;99441.00;4925521;28;99206;-71
2023/01/16 05:56:42;;;;;;;3.38;0.80;;;;;;;8.82;54.43;99432.91;4926933;28;96807;-71
2023/01/16 05:59:10;;;;;;;4.10;0.70;;;;;;;8.72;54.26;99438.63;4929800;28;97078;-72
2023/01/16 06:01:41;;;;;;;2.83;0.80;;;;;;;8.66;54.10;99433.63;4931937;28;99590;-72
2023/01/16 06:04:10;;;;;;;2.80;0.90;;;;;;;8.68;54.48;99436.22;4930609;28;98782;-72
2023/01/16 06:06:37;;;;;;;7.00;1.15;;;;;;;8.58;54.76;99435.81;4941599;28;96952;-70
2023/01/16 06:09:03;;;;;;;2.25;0.98;;;;;;;8.47;55.13;99426.72;4935881;28;97137;-70
2023/01/16 06:11:30;;;;;;;2.47;0.70;;;;;;;8.56;55.05;99426.28;4925888;28;99192;-70
2023/01/16 06:13:56;;;;;;;4.25;0.75;;;;;;;8.69;54.26;99425.59;4929289;28;101110;-71
2023/01/16 06:16:23;;;;;;;4.18;1.08;;;;;;;8.63;54.69;99432.94;4938391;28;98729;-71
2023/01/16 06:18:51;;;;;;;5.07;1.05;;;;;;;8.70;54.34;99423.81;4923901;28;97574;-72
2023/01/16 06:21:17;;;;;;;7.85;1.15;;;;;;;8.62;54.69;99423.34;4927197;28;101685;-72
2023/01/16 06:23:44;;;;;;;4.57;1.05;;;;;;;8.66;54.01;99420.47;4930225;28;99319;-71
2023/01/16 06:26:10;;;;;;;4.82;1.10;;;;;;;8.70;54.29;99408.03;4925443;28;97861;-70
2023/01/16 06:28:37;;;;;;;3.70;0.70;;;;;;;8.45;54.85;99413.63;4929664;28;96805;-70
2023/01/16 06:31:06;;;;;;;4.30;1.10;;;;;;;8.50;55.01;99408.13;4933662;28;98874;-71
2023/01/16 06:33:32;;;;;;;5.10;1.00;;;;;;;8.20;55.47;99403.38;4933347;28;99072;-71
2023/01/16 06:36:00;;;;;;;4.65;0.90;;;;;;;8.20;55.65;99411.28;4927555;28;99210;-71
2023/01/16 06:38:27;;;;;;;3.20;1.02;;;;;;;8.27;55.62;99402.16;4926674;28;96917;-71
2023/01/16 06:40:55;;;;;;;4.72;0.88;;;;;;;8.33;55.39;99412.44;4929188;28;99116;-69
2023/01/16 06:43:23;;;;;;;9.35;2.35;;;;;;;8.44;54.93;99411.06;4932156;28;99602;-69
2023/01/16 06:45:49;;;;;;;1.98;0.90;;;;;;;8.67;54.24;99402.91;4932123;28;97046;-71
2023/01/16 06:48:15;;;;;;;2.42;1.13;;;;;;;8.72;53.85;99404.41;4926744;28;98975;-72
2023/01/16 06:50:42;;;;;;;4.55;1.08;;;;;;;9.02;53.31;99404.66;4924717;28;98597;-72
2023/01/16 06:53:10;;;;;;;2.53;1.08;;;;;;;9.10;52.99;99389.31;4931480;28;100629;-71
2023/01/16 06:55:36;;;;;;;4.40;0.95;;;;;;;8.92;53.39;99389.38;4934723;28;96767;-70
2023/01/16 06:58:03;;;;;;;3.83;0.98;;;;;;;8.86;53.24;99387.88;4925700;28;96767;-70
2023/01/16 07:00:29;;;;;;;5.10;1.77;;;;;;;8.76;53.69;99394.56;4929590;28;97562;-71
2023/01/16 07:02:56;;;;;;;7.28;1.42;;;;;;;8.72;54.01;99395.66;4931661;28;97811;-70
2023/01/16 07:05:24;;;;;;;6.38;0.90;;;;;;;8.94;53.21;99396.25;4936207;28;97615;-70
2023/01/16 07:07:51;;;;;;;3.55;1.02;;;;;;;9.00;53.06;99388.06;4940258;28;97167;-70
2023/01/16 07:10:20;;;;;;;4.05;1.10;;;;;;;8.94;53.07;99391.00;4932770;28;98849;-69
2023/01/16 07:12:47;;;;;;;6.65;1.23;;;;;;;8.85;53.44;99386.22;4929575;28;100181;-69
2023/01/16 07:23:29;;;;;;;4.57;1.10;;;;;;;8.73;53.64;99382.38;4928014;28;97094;-68
2023/01/16 07:25:59;;;;;;;4.90;1.55;;;;;;;8.86;53.31;99387.88;4929290;28;96704;-67
2023/01/16 07:28:26;;;;;;;2.60;1.27;;;;;;;8.68;53.80;99384.38;4934193;28;96749;-69
2023/01/16 07:30:53;;;;;;;8.73;1.10;;;;;;;8.77;53.50;99367.28;4933443;28;98897;-68
2023/01/16 07:33:19;;;;;;;5.72;0.90;;;;;;;8.68;53.69;99373.00;4929747;28;99095;-69
2023/01/16 07:35:45;;;;;;;6.18;1.25;;;;;;;8.56;54.02;99365.72;4930885;28;96720;-68
2023/01/16 07:38:12;;;;;;;3.42;1.00;;;;;;;8.88;52.90;99374.66;4928977;28;98011;-68
2023/01/16 07:40:44;;;;;;;4.50;2.05;;;;;;;8.78;53.22;99371.63;4929116;28;99440;-71
2023/01/16 07:43:12;;;;;;;6.80;1.00;;;;;;;8.96;52.46;99373.34;4929608;28;97626;-69
2023/01/16 07:45:39;;;;;;;3.97;1.02;;;;;;;8.85;52.84;99370.41;4940722;28;97482;-68
2023/01/16 07:48:06;;;;;;;4.00;1.00;;;;;;;8.94;52.64;99372.56;4931169;28;96860;-69
2023/01/16 07:50:32;;;;;;;3.53;0.75;;;;;;;8.99;52.51;99365.25;4930957;28;98864;-69
2023/01/16 07:52:59;;;;;;;7.72;0.80;;;;;;;8.99;52.39;99356.53;4935838;28;99138;-69
2023/01/16 07:55:25;;;;;;;5.13;1.30;;;;;;;9.05;52.55;99357.06;4924268;28;97145;-69
2023/01/16 07:57:52;;;;;;;4.28;1.00;;;;;;;8.97;52.93;99347.84;4926187;28;96848;-69
2023/01/16 08:00:20;;;;;;;3.97;1.13;;;;;;;8.97;52.74;99342.59;4930531;28;98777;-69
2023/01/16 08:02:47;;;;;;;2.90;1.10;;;;;;;8.86;52.98;99335.19;4925238;28;98890;-69
2023/01/16 08:05:17;;;;;;;4.72;1.10;;;;;;;8.87;52.77;99331.66;4928592;28;96962;-71
2023/01/16 08:07:46;;;;;;;1.90;1.10;;;;;;;9.04;52.56;99334.28;4935211;28;97244;-70
2023/01/16 08:10:13;;;;;;;3.78;1.20;;;;;;;9.12;52.18;99328.63;4928410;28;98997;-69
2023/01/16 08:12:39;;;;;;;3.05;1.20;;;;;;;9.01;52.77;99334.44;4927623;28;99501;-70
2023/01/16 08:15:07;;;;;;;8.80;1.50;;;;;;;8.98;52.56;99329.34;4933365;28;96729;-69
2023/01/16 08:17:34;;;;;;;3.03;1.13;;;;;;;9.06;52.34;99321.88;4929639;28;97676;-69
2023/01/16 08:20:01;;;;;;;4.13;0.93;;;;;;;8.96;52.94;99325.91;4933609;28;99021;-69
2023/01/16 08:22:27;;;;;;;8.13;1.25;;;;;;;9.23;52.47;99318.38;4928062;28;98891;-69
2023/01/16 08:24:54;;;;;;;5.22;0.93;;;;;;;9.29;51.89;99318.03;4935761;28;97513;-69
2023/01/16 08:27:20;;;;;;;4.85;1.25;;;;;;;9.14;52.29;99309.16;4933680;28;97034;-70
2023/01/16 08:29:46;;;;;;;2.67;1.00;;;;;;;9.20;52.13;99308.81;4932686;28;98810;-69
2023/01/16 08:32:13;;;;;;;4.68;1.05;;;;;;;9.34;51.44;99301.97;4935303;28;98860;-71
2023/01/16 08:34:42;;;;;;;5.70;1.38;;;;;;;9.30;51.25;99303.09;4928091;28;96755;-70
2023/01/16 08:37:10;;;;;;;4.05;1.20;;;;;;;9.16;51.59;99286.22;4927725;28;96891;-69
2023/01/16 08:39:36;;;;;;;5.57;1.25;;;;;;;9.15;51.88;99289.78;4927198;28;98544;-70
2023/01/16 08:53:05;;;;;;;5.97;1.05;;;;;;;9.12;51.40;99250.41;4929119;28;97092;-70
2023/01/16 08:55:32;;;;;;;5.07;0.85;;;;;;;9.07;51.48;99255.06;4940058;28;96857;-70
2023/01/16 08:57:58;;;;;;;3.17;0.70;;;;;;;9.45;50.45;99244.28;4928654;28;97492;-70
2023/01/16 09:00:25;;;;;;;4.05;1.20;;;;;;;9.50;50.19;99240.44;4935436;28;98854;-69
2023/01/16 09:02:51;;;;;;;3.88;1.20;;;;;;;9.52;50.37;99238.56;4935090;28;100289;-69
2023/01/16 09:05:19;;;;;;;9.75;1.27;;;;;;;9.71;49.68;99230.50;4933983;28;96864;-69
2023/01/16 09:07:46;;;;;;;4.95;0.98;;;;;;;9.60;49.71;99231.06;4936511;28;97433;-69
2023/01/16 09:10:12;;;;;;;7.15;0.73;;;;;;;9.31;50.46;99230.97;4936613;28;101689;-70
2023/01/16 09:15:24;;;;;;;3.55;1.13;;;;;;;9.33;50.46;99210.63;4931422;28;97035;-69
2023/01/16 09:17:50;;;;;;;3.33;0.88;;;;;;;9.53;50.02;99210.41;4938969;28;96808;-70
2023/01/16 09:20:19;;;;;;;2.35;0.77;;;;;;;9.54;49.96;99207.69;4935749;28;97754;-71
2023/01/16 09:22:46;;;;;;;6.15;1.05;;;;;;;9.69;49.47;99205.13;4930141;28;98790;-69
2023/01/16 09:25:12;;;;;;;4.03;1.48;;;;;;;9.68;49.72;99199.00;4936683;28;97556;-70
2023/01/16 09:27:38;;;;;;;9.18;1.42;;;;;;;9.84;48.90;99189.31;4938883;28;97277;-69
2023/01/16 09:30:06;;;;;;;2.28;0.80;;;;;;;9.80;49.00;99195.66;4935553;28;101997;-70
2023/01/16 09:32:33;;;;;;;7.20;1.73;;;;;;;9.77;49.03;99197.66;4929940;28;98671;-69
2023/01/16 09:35:00;;;;;;;3.55;1.02;;;;;;;9.90;48.95;99198.66;4934492;28;97048;-69
2023/01/16 09:37:27;;;;;;;2.75;1.13;;;;;;;10.02;48.42;99192.66;4926067;28;96804;-69
2023/01/16 09:39:54;;;;;;;4.80;1.00;;;;;;;10.02;48.35;99183.91;4937114;28;98881;-69
2023/01/16 09:45:32;;;;;;;2.45;0.93;;;;;;;10.26;47.29;99182.50;4934964;28;97060;-70
2023/01/16 09:48:02;;;;;;;6.60;0.93;;;;;;;10.17;47.33;99170.69;4935030;28;97455;-69
2023/01/16 09:50:35;;;;;;;5.07;1.00;;;;;;;10.03;47.85;99172.41;4936184;28;99019;-70
2023/01/16 09:58:41;;;;;;;4.43;0.90;;;;;;;10.13;47.17;99150.66;4939617;28;96906;-70
2023/01/16 10:01:13;;;;;;;4.28;1.10;;;;;;;10.19;47.29;99147.69;4942720;28;103371;-70
2023/01/16 10:03:42;;;;;;;2.85;1.23;;;;;;;10.49;47.26;99137.09;4941850;28;99290;-70
2023/01/16 10:06:22;;;;;;;3.67;0.90;;;;;;;10.47;46.40;99135.47;4930226;28;97485;-71
2023/01/16 10:09:07;;;;;;;6.35;0.73;;;;;;;10.50;46.71;99133.50;4937440;28;97522;-69
2023/01/16 10:11:40;;;;;;;3.42;0.88;;;;;;;10.84;46.13;99134.06;4929310;28;99030;-70
2023/01/16 10:14:27;;;;;;;3.88;0.90;;;;;;;10.78;45.69;99125.59;4936476;28;100371;-70
2023/01/16 10:17:06;;;;;;;4.28;0.93;;;;;;;10.81;46.06;99113.13;4932155;28;97325;-69
2023/01/16 10:19:44;;;;;;;4.80;0.90;;;;;;;11.13;45.19;99106.69;4936564;28;96873;-71
2023/01/16 10:22:30;;;;;;;3.92;0.98;;;;;;;11.26;44.89;99107.59;4935243;28;99581;-70
2023/01/16 10:25:12;;;;;;;3.85;0.90;;;;;;;10.83;45.62;99098.06;4943732;28;98811;-71
2023/01/16 10:27:48;;;;;;;1.92;0.82;;;;;;;10.87;45.91;99091.63;4936690;28;97462;-70
2023/01/16 10:30:18;;;;;;;;;;;;;;;10.72;45.74;99088.97;4935342;28;96721;-69
2023/01/16 10:32:48;;;;;;;3.10;1.10;;;;;;;10.89;45.58;99076.53;4934966;28;99298;-69
2023/01/16 10:35:18;;;;;;;2.13;0.60;;;;;;;11.16;44.73;99072.09;4936830;28;98061;-69
2023/01/16 10:37:46;;;;;;;5.05;1.00;;;;;;;11.16;44.57;99074.75;4937308;28;96882;-71
2023/01/16 10:40:18;;;;;;;4.90;0.65;;;;;;;11.20;44.39;99068.31;4937217;28;96848;-71
2023/01/16 10:51:07;;;;;;;2.20;0.80;;;;;;;11.56;43.42;99039.47;4929669;28;97560;-70
2023/01/16 10:53:36;;;;;;;4.38;0.75;;;;;;;11.61;43.04;99040.97;4936110;28;98981;-71
2023/01/16 10:56:04;;;;;;;7.63;0.82;;;;;;;11.52;42.78;99035.34;4942233;28;99141;-72
2023/01/16 10:58:34;;;;;;;1.73;0.80;;;;;;;11.54;43.54;99036.09;4928484;28;96736;-69
2023/01/16 11:01:04;;;;;;;2.42;0.82;;;;;;;11.70;42.98;99024.47;4925406;28;98074;-70
2023/01/16 11:03:35;;;;;;;6.88;1.38;;;;;;;11.20;43.30;99018.09;4918528;28;99257;-69
2023/01/16 11:06:15;;;;;;;4.85;2.15;;;;;;;11.04;43.63;99009.44;4931729;28;98826;-71
2023/01/16 11:08:43;;;;;;;3.08;0.82;;;;;;;11.32;43.52;98998.78;4939418;28;98277;-70
2023/01/16 11:19:30;;;;;;;1.35;0.50;;;;;;;11.24;43.21;98974.63;4931184;28;96751;-72
2023/01/16 11:22:00;;;;;;;5.70;1.23;;;;;;;11.58;42.52;98968.78;4934267;28;96904;-70
2023/01/16 11:24:32;;;;;;;2.53;0.60;;;;;;;11.71;42.39;98962.66;4933077;28;98820;-71
2023/01/16 11:27:01;;;;;;;2.70;0.70;;;;;;;11.89;42.12;98961.44;4930275;28;99555;-69
2023/01/16 11:29:33;;;;;;;7.32;1.08;;;;;;;11.68;42.08;98960.25;4937034;28;96718;-70
2023/01/16 11:32:07;;;;;;;3.83;0.85;;;;;;;11.55;42.12;98958.41;4935202;28;96693;-71
2023/01/16 11:34:34;;;;;;;2.72;0.80;;;;;;;11.67;42.06;98937.38;4928344;28;98802;-71
2023/01/16 11:37:04;;;;;;;6.47;0.65;;;;;;;11.56;42.19;98935.44;4931189;28;98979;-70
2023/01/16 11:39:34;;;;;;;3.40;1.00;;;;;;;11.66;41.81;98917.16;4928872;28;96858;-72
2023/01/16 11:46:01;;;;;;;2.70;0.73;;;;;;;11.87;41.89;98910.44;4931739;28;97185;-71
2023/01/16 11:47:43;;;;;;;6.35;1.02;;;;;;;11.75;41.50;98901.50;4935509;28;98086;-69
2023/01/16 11:50:27;;;;;;;7.88;0.60;;;;;;;11.49;41.64;98892.69;4937287;28;96848;-69
2023/01/16 11:52:54;;;;;;;3.38;0.65;;;;;;;11.51;41.28;98893.44;4933857;28;96799;-70
2023/01/16 11:55:22;;;;;;;4.55;0.68;;;;;;;11.42;41.65;98895.91;4935055;28;98994;-70
2023/01/16 11:57:54;;;;;;;3.05;0.60;;;;;;;11.48;41.65;98885.75;4934672;28;99144;-70
2023/01/16 12:00:34;;;;;;;2.35;1.05;;;;;;;11.65;41.30;98876.63;4936232;28;96771;-73
2023/01/16 12:03:22;;;;;;;2.20;0.70;;;;;;;11.66;41.28;98867.75;4928540;28;97211;-72
2023/01/16 12:06:01;;;;;;;3.70;0.70;;;;;;;11.45;41.27;98861.28;4934097;28;99252;-72
2023/01/16 12:08:56;;;;;;;4.60;0.95;;;;;;;11.51;41.07;98852.94;4940237;28;98953;-72
2023/01/16 12:11:32;;;;;;;3.50;0.85;;;;;;;11.70;40.63;98847.19;4931189;28;96914;-71
2023/01/16 12:17:02;;;;;;;1.75;0.55;;;;;;;11.71;40.08;98835.66;4940338;28;98510;-72
2023/01/16 12:19:48;;;;;;;1.55;0.60;;;;;;;11.77;39.93;98835.25;4940703;28;99068;-70
2023/01/16 12:22:25;;;;;;;6.18;0.60;;;;;;;11.83;39.27;98825.09;4937587;28;97173;-70
2023/01/16 12:24:58;;;;;;;2.30;0.77;;;;;;;11.84;39.28;98812.72;4937826;28;98272;-71
2023/01/16 12:27:38;;;;;;;3.35;0.60;;;;;;;11.58;39.25;98818.00;4940838;28;99225;-70
2023/01/16 12:30:23;;;;;;;1.40;0.40;;;;;;;11.75;39.05;98802.81;4934690;28;100351;-70
2023/01/16 12:32:59;;;;;;;4.43;0.77;;;;;;;11.92;38.82;98807.72;4936327;28;97545;-72
2023/01/16 12:35:34;;;;;;;;;;;;;;;12.06;38.24;98794.34;4942005;28;97103;-70
2023/01/16 12:38:11;;;;;;;1.80;0.65;;;;;;;12.24;38.20;98797.47;4937946;28;99390;-70
2023/01/16 12:40:53;;;;;;;3.50;0.70;;;;;;;12.31;38.28;98782.81;4938691;28;99342;-71
2023/01/16 12:43:31;;;;;;;11.13;0.73;;;;;;;12.16;38.56;98774.19;4930539;28;98213;-70
2023/01/16 12:46:04;;;;;;;1.75;0.75;;;;;;;12.23;38.33;98761.34;4937761;28;97050;-70
2023/01/16 12:48:46;;;;;;;5.97;0.75;;;;;;;12.33;38.26;98760.56;4929725;28;99149;-73